Time;durP1;ratioP1;P1;durP2;ratioP2;P2;SDS_P1;SDS_P2;PMS_P1;PMS_P2;Temp;Humidity;BMP_temperature;BMP_pressure;BME280_temperature;BME280_humidity;BME280_pressure;Samples;Min_cycle;Max_cycle;Signal;HPM_P1;HPM_P2
2023/07/08 00:00:35;;;;;;;4.78;4.38;;;25.00;90.10;;;;;;6289520;27;88348;-72
2023/07/08 00:03:37;;;;;;;4.53;4.13;;;25.00;90.10;;;;;;6297381;27;89095;-72
2023/07/08 00:06:40;;;;;;;4.60;4.20;;;25.00;90.10;;;;;;6299420;27;89044;-72
2023/07/08 00:09:42;;;;;;;4.53;4.13;;;25.00;90.10;;;;;;6280527;27;89980;-72
2023/07/08 00:12:45;;;;;;;5.15;4.65;;;24.90;90.20;;;;;;6294391;27;89068;-72
2023/07/08 00:15:47;;;;;;;4.93;4.53;;;25.00;90.20;;;;;;6294118;27;88938;-71
2023/07/08 00:18:49;;;;;;;5.03;4.53;;;25.00;90.20;;;;;;6301932;27;89446;-70
2023/07/08 00:21:53;;;;;;;4.65;4.25;;;25.00;90.20;;;;;;6288565;27;89006;-72
2023/07/08 00:24:55;;;;;;;4.75;4.35;;;25.00;90.20;;;;;;6282259;27;89076;-72
2023/07/08 00:27:57;;;;;;;4.38;3.97;;;25.00;90.10;;;;;;6290463;27;89057;-72
2023/07/08 00:30:59;;;;;;;4.20;3.80;;;25.00;90.10;;;;;;6289086;27;88295;-71
2023/07/08 00:34:02;;;;;;;4.68;4.28;;;25.00;90.00;;;;;;6292894;27;89331;-72
2023/07/08 00:37:06;;;;;;;4.65;4.25;;;25.00;90.00;;;;;;6288538;27;89643;-72
2023/07/08 00:40:17;;;;;;;4.70;4.30;;;24.90;90.00;;;;;;6302389;27;90269;-72
2023/07/08 00:43:23;;;;;;;4.70;4.20;;;24.90;90.00;;;;;;6295760;27;89074;-71
2023/07/08 00:46:47;;;;;;;5.03;4.53;;;24.90;90.00;;;;;;6291954;27;89025;-72
2023/07/08 00:49:56;;;;;;;4.80;4.40;;;24.90;90.00;;;;;;6296026;27;89048;-72
2023/07/08 00:53:28;;;;;;;4.72;4.32;;;25.00;90.00;;;;;;6301582;27;89383;-72
2023/07/08 00:56:33;;;;;;;5.05;4.60;;;24.90;90.00;;;;;;6293785;27;89099;-72
2023/07/08 00:59:42;;;;;;;5.00;4.50;;;24.90;90.10;;;;;;6300978;27;88241;-71
2023/07/08 01:02:48;;;;;;;5.18;4.68;;;24.90;90.20;;;;;;6297801;27;88263;-72
2023/07/08 01:05:51;;;;;;;5.50;5.00;;;24.90;90.20;;;;;;6284362;27;89409;-72
2023/07/08 01:08:55;;;;;;;5.20;4.70;;;24.90;90.20;;;;;;6296410;27;89545;-72
2023/07/08 01:11:59;;;;;;;4.80;4.40;;;25.00;90.20;;;;;;6294776;27;90058;-72
2023/07/08 01:15:03;;;;;;;4.32;3.92;;;25.00;90.10;;;;;;6290527;27;89101;-72
2023/07/08 01:18:06;;;;;;;4.93;4.43;;;25.00;90.40;;;;;;6290434;27;89087;-71
2023/07/08 01:21:31;;;;;;;5.00;4.60;;;24.90;90.00;;;;;;6289222;27;89164;-72
2023/07/08 01:24:38;;;;;;;4.45;4.05;;;24.90;90.00;;;;;;6295804;27;89043;-71
2023/07/08 01:27:44;;;;;;;4.35;3.95;;;24.90;90.00;;;;;;6285516;27;90272;-72
2023/07/08 01:30:47;;;;;;;4.95;4.55;;;24.90;90.00;;;;;;6287285;27;89189;-71
2023/07/08 01:33:50;;;;;;;5.35;4.85;;;24.90;90.00;;;;;;6290243;27;88325;-72
2023/07/08 01:36:55;;;;;;;5.15;4.65;;;24.90;90.00;;;;;;6294816;27;89073;-72
2023/07/08 01:39:59;;;;;;;4.55;4.15;;;25.00;90.00;;;;;;6281899;27;88882;-72
2023/07/08 01:43:02;;;;;;;5.45;4.95;;;24.90;90.00;;;;;;6296646;27;90006;-72
2023/07/08 01:46:05;;;;;;;5.15;4.75;;;24.90;90.00;;;;;;6284039;27;89093;-72
2023/07/08 01:49:07;;;;;;;5.53;5.03;;;24.90;90.10;;;;;;6286578;27;89329;-72
2023/07/08 01:52:11;;;;;;;5.30;4.80;;;24.90;90.20;;;;;;6289554;27;88001;-72
2023/07/08 01:55:14;;;;;;;5.53;5.03;;;24.90;90.20;;;;;;6294644;27;89348;-71
2023/07/08 01:58:16;;;;;;;5.13;4.70;;;25.00;90.20;;;;;;6291989;27;89378;-72
2023/07/08 02:01:18;;;;;;;4.70;4.30;;;24.90;90.10;;;;;;6297000;27;89084;-72
2023/07/08 02:04:20;;;;;;;5.60;5.10;;;24.90;90.00;;;;;;6297578;27;88386;-72
2023/07/08 02:07:22;;;;;;;5.10;4.60;;;24.90;90.00;;;;;;6292395;27;88939;-72
2023/07/08 02:10:26;;;;;;;5.47;4.97;;;24.90;90.00;;;;;;6296912;27;89240;-72
2023/07/08 02:13:28;;;;;;;5.43;4.93;;;24.90;90.00;;;;;;6283977;27;90085;-72
2023/07/08 02:16:30;;;;;;;4.80;4.40;;;24.90;90.00;;;;;;6282941;27;89054;-72
2023/07/08 02:19:32;;;;;;;4.60;4.20;;;24.90;90.00;;;;;;6291089;27;89026;-72
2023/07/08 02:22:34;;;;;;;4.90;4.50;;;24.90;90.00;;;;;;6285581;27;89041;-72
2023/07/08 02:25:37;;;;;;;5.13;4.70;;;24.90;90.00;;;;;;6290384;27;89093;-72
2023/07/08 02:28:39;;;;;;;5.07;4.63;;;24.90;90.00;;;;;;6290285;27;88685;-70
2023/07/08 02:31:41;;;;;;;5.20;4.80;;;24.90;90.00;;;;;;6296195;27;89117;-70
2023/07/08 02:34:43;;;;;;;5.13;4.68;;;24.90;90.00;;;;;;6283618;27;88298;-70
2023/07/08 02:37:45;;;;;;;5.57;5.07;;;24.90;90.10;;;;;;6290802;27;89203;-70
2023/07/08 02:40:48;;;;;;;5.60;5.10;;;24.90;90.20;;;;;;6292767;27;89011;-70
2023/07/08 02:43:51;;;;;;;4.75;4.35;;;24.90;90.20;;;;;;6284045;27;89947;-70
2023/07/08 02:46:52;;;;;;;4.85;4.45;;;24.90;90.50;;;;;;6293019;27;88994;-70
2023/07/08 02:49:55;;;;;;;4.72;4.32;;;24.90;90.00;;;;;;6282976;27;89158;-70
2023/07/08 02:52:57;;;;;;;5.30;4.80;;;24.90;90.00;;;;;;6284158;27;89131;-70
2023/07/08 02:56:00;;;;;;;4.90;4.50;;;24.90;90.00;;;;;;6294678;27;88742;-70
2023/07/08 02:59:02;;;;;;;5.13;4.50;;;24.90;90.00;;;;;;6294151;27;89037;-70
2023/07/08 03:02:04;;;;;;;5.05;4.65;;;24.90;89.90;;;;;;6292882;27;89138;-70
2023/07/08 03:05:07;;;;;;;5.00;4.60;;;24.90;90.00;;;;;;6296106;27;88470;-70
2023/07/08 03:08:09;;;;;;;4.93;4.53;;;24.90;90.00;;;;;;6291188;27;89016;-70
2023/07/08 03:11:13;;;;;;;5.25;4.75;;;24.90;90.00;;;;;;6290090;27;87046;-70
2023/07/08 03:14:15;;;;;;;5.97;5.45;;;24.90;90.00;;;;;;6286343;27;90424;-70
2023/07/08 03:17:18;;;;;;;4.75;4.35;;;24.90;90.00;;;;;;6289598;27;88029;-70
2023/07/08 03:20:21;;;;;;;5.00;4.60;;;24.90;90.00;;;;;;6286605;27;89053;-70
2023/07/08 03:23:23;;;;;;;5.35;4.85;;;24.90;90.10;;;;;;6294748;27;88654;-70
2023/07/08 03:26:27;;;;;;;5.38;4.88;;;24.90;90.10;;;;;;6287770;27;87861;-70
2023/07/08 03:29:29;;;;;;;5.55;4.97;;;24.90;90.20;;;;;;6301525;27;90263;-69
2023/07/08 03:32:31;;;;;;;5.25;4.75;;;24.90;90.10;;;;;;6293272;27;89150;-70
2023/07/08 03:35:33;;;;;;;5.20;4.70;;;24.90;90.10;;;;;;6284986;27;88388;-69
2023/07/08 03:38:35;;;;;;;5.18;4.78;;;24.90;90.00;;;;;;6285325;27;87959;-69
2023/07/08 03:41:38;;;;;;;5.82;5.30;;;24.90;90.00;;;;;;6298822;27;89145;-70
2023/07/08 03:44:40;;;;;;;4.93;4.53;;;24.90;90.00;;;;;;6304823;27;90064;-70
2023/07/08 03:47:42;;;;;;;5.35;4.75;;;24.90;90.00;;;;;;6292990;27;89053;-69
2023/07/08 03:50:45;;;;;;;5.47;4.97;;;24.90;90.00;;;;;;6284695;27;91025;-69
2023/07/08 03:53:47;;;;;;;5.05;4.57;;;24.90;90.00;;;;;;6283206;27;89118;-69
2023/07/08 03:56:50;;;;;;;5.07;4.68;;;24.90;90.00;;;;;;6286876;27;90390;-70
2023/07/08 03:59:52;;;;;;;5.70;5.20;;;24.90;90.00;;;;;;6286700;27;89077;-69
2023/07/08 04:02:54;;;;;;;5.25;4.75;;;24.90;90.00;;;;;;6288255;27;87890;-69
2023/07/08 04:05:57;;;;;;;5.60;5.10;;;24.90;90.00;;;;;;6294953;27;88525;-70
2023/07/08 04:08:59;;;;;;;5.13;4.63;;;24.90;90.10;;;;;;6294042;27;89126;-70
2023/07/08 04:12:02;;;;;;;5.35;4.85;;;24.90;90.10;;;;;;6288904;27;89424;-69
2023/07/08 04:15:05;;;;;;;5.40;4.93;;;24.90;90.20;;;;;;6292627;27;90308;-69
2023/07/08 04:18:07;;;;;;;5.70;5.20;;;24.90;90.20;;;;;;6285054;27;88929;-70
2023/07/08 04:21:09;;;;;;;5.50;5.00;;;24.90;90.20;;;;;;6294035;27;89135;-70
2023/07/08 04:24:12;;;;;;;5.35;4.85;;;24.90;90.20;;;;;;6292844;27;89295;-69
2023/07/08 04:27:17;;;;;;;5.30;4.80;;;24.90;90.10;;;;;;6279593;27;89466;-70
2023/07/08 04:30:25;;;;;;;4.95;4.55;;;24.90;90.10;;;;;;6281176;27;89016;-70
2023/07/08 04:33:27;;;;;;;4.97;4.57;;;24.90;90.10;;;;;;6287630;27;89326;-70
2023/07/08 04:36:29;;;;;;;4.95;4.55;;;24.90;90.10;;;;;;6293490;27;88295;-70
2023/07/08 04:39:32;;;;;;;5.00;4.60;;;24.90;90.20;;;;;;6289562;27;88994;-70
2023/07/08 04:42:36;;;;;;;5.32;4.93;;;24.90;90.10;;;;;;6284898;27;88081;-70
2023/07/08 04:45:38;;;;;;;5.38;4.88;;;24.90;90.10;;;;;;6291030;27;90118;-69
2023/07/08 04:48:40;;;;;;;5.50;5.00;;;24.90;90.10;;;;;;6281501;27;89319;-70
2023/07/08 04:51:42;;;;;;;5.90;5.40;;;24.90;90.10;;;;;;6283234;27;89092;-70
2023/07/08 04:54:44;;;;;;;5.65;5.15;;;24.90;90.10;;;;;;6282254;27;90919;-70
2023/07/08 04:57:48;;;;;;;6.18;5.57;;;24.90;90.10;;;;;;6289090;27;89066;-70
2023/07/08 05:00:50;;;;;;;5.40;4.90;;;25.00;90.20;;;;;;6299949;27;89138;-69
2023/07/08 05:03:52;;;;;;;5.75;5.25;;;25.00;90.20;;;;;;6289109;27;89356;-70
2023/07/08 05:06:54;;;;;;;5.93;5.05;;;24.90;90.20;;;;;;6286348;27;88322;-69
2023/07/08 05:09:56;;;;;;;5.60;5.10;;;25.00;90.20;;;;;;6295997;27;89182;-69
2023/07/08 05:12:59;;;;;;;5.63;5.15;;;25.00;90.20;;;;;;6286023;27;88995;-69
2023/07/08 05:16:01;;;;;;;5.75;5.25;;;25.00;90.20;;;;;;6289449;27;90032;-69
2023/07/08 05:19:03;;;;;;;5.93;5.43;;;25.10;90.20;;;;;;6283369;27;88077;-70
2023/07/08 05:22:05;;;;;;;5.78;5.28;;;25.00;90.10;;;;;;6300063;27;88975;-70
2023/07/08 05:25:08;;;;;;;5.63;5.13;;;25.00;90.10;;;;;;6289208;27;88226;-69
2023/07/08 05:28:11;;;;;;;6.18;5.63;;;25.00;90.00;;;;;;6295856;27;89155;-69
2023/07/08 05:31:13;;;;;;;5.78;5.28;;;25.10;90.00;;;;;;6295190;27;89411;-69
2023/07/08 05:34:16;;;;;;;6.10;5.50;;;25.00;90.00;;;;;;6291220;27;87971;-70
2023/07/08 05:37:21;;;;;;;6.03;5.43;;;25.00;90.00;;;;;;6291692;27;88267;-69
2023/07/08 05:40:23;;;;;;;6.60;6.00;;;25.00;90.00;;;;;;6288055;27;87954;-69
2023/07/08 05:43:27;;;;;;;6.00;5.40;;;25.00;90.00;;;;;;6292908;27;87969;-69
2023/07/08 05:46:29;;;;;;;6.10;5.60;;;25.00;90.00;;;;;;6294596;27;90024;-70
2023/07/08 05:49:31;;;;;;;5.95;5.38;;;25.00;90.10;;;;;;6285970;27;89436;-69
2023/07/08 05:52:33;;;;;;;5.50;5.00;;;25.00;90.10;;;;;;6282394;27;87912;-71
2023/07/08 05:55:35;;;;;;;5.53;5.03;;;25.10;90.20;;;;;;6290447;27;89407;-72
2023/07/08 05:58:38;;;;;;;5.57;5.07;;;25.00;90.20;;;;;;6293353;27;89434;-72
2023/07/08 06:01:40;;;;;;;6.03;5.53;;;25.10;90.20;;;;;;6283271;27;88251;-71
2023/07/08 06:04:42;;;;;;;5.43;4.93;;;25.10;90.20;;;;;;6283034;27;89073;-72
2023/07/08 06:07:44;;;;;;;5.47;4.97;;;25.10;90.20;;;;;;6288180;27;88287;-71
2023/07/08 06:10:46;;;;;;;5.60;5.10;;;25.10;90.20;;;;;;6291750;27;89070;-72
2023/07/08 06:13:50;;;;;;;5.90;5.40;;;25.10;90.20;;;;;;6285865;27;89102;-69
2023/07/08 06:16:52;;;;;;;5.53;5.03;;;25.10;90.20;;;;;;6296586;27;90197;-69
2023/07/08 06:19:54;;;;;;;5.75;5.25;;;25.10;90.20;;;;;;6280952;27;88028;-70
2023/07/08 06:22:56;;;;;;;5.30;4.80;;;25.10;90.20;;;;;;6286301;27;89515;-70
2023/07/08 06:25:58;;;;;;;5.53;5.03;;;25.10;90.20;;;;;;6306545;27;89017;-70
2023/07/08 06:29:01;;;;;;;5.47;4.97;;;25.10;90.20;;;;;;6302096;27;89432;-70
2023/07/08 06:32:03;;;;;;;5.63;5.13;;;25.10;90.20;;;;;;6283636;27;89087;-69
2023/07/08 06:35:06;;;;;;;5.50;5.00;;;25.10;90.20;;;;;;6295114;27;89267;-70
2023/07/08 06:38:09;;;;;;;5.65;5.15;;;25.10;90.10;;;;;;6293931;27;88345;-69
2023/07/08 06:41:10;;;;;;;5.60;4.95;;;25.10;90.10;;;;;;6287101;27;89033;-70
2023/07/08 06:44:14;;;;;;;5.75;5.25;;;25.10;90.10;;;;;;6299435;27;89110;-69
2023/07/08 06:47:16;;;;;;;5.60;5.10;;;25.20;90.20;;;;;;6291140;27;90038;-70
2023/07/08 06:50:18;;;;;;;5.43;4.97;;;25.20;90.10;;;;;;6284191;27;89075;-70
2023/07/08 06:53:20;;;;;;;5.72;5.22;;;25.20;90.10;;;;;;6289162;27;89147;-70
2023/07/08 06:56:22;;;;;;;5.63;5.13;;;25.10;90.10;;;;;;6281819;27;89077;-70
2023/07/08 06:59:25;;;;;;;6.18;5.57;;;25.20;90.20;;;;;;6286805;27;89060;-71
2023/07/08 07:02:27;;;;;;;5.28;4.85;;;25.20;90.20;;;;;;6283660;27;89417;-72
2023/07/08 07:05:29;;;;;;;5.70;5.20;;;25.20;90.20;;;;;;6284532;27;89126;-72
2023/07/08 07:08:31;;;;;;;5.95;5.35;;;25.20;90.20;;;;;;6289011;27;88707;-71
2023/07/08 07:11:33;;;;;;;5.22;4.82;;;25.20;90.20;;;;;;6298014;27;87904;-72
2023/07/08 07:14:37;;;;;;;5.78;5.28;;;25.20;90.20;;;;;;6285946;27;89079;-72
2023/07/08 07:17:39;;;;;;;5.53;5.03;;;25.20;90.20;;;;;;6300194;27;90056;-71
2023/07/08 07:20:49;;;;;;;5.53;5.03;;;25.10;90.20;;;;;;6296231;27;89086;-72
2023/07/08 07:23:51;;;;;;;5.45;4.95;;;25.20;90.20;;;;;;6292230;27;89571;-71
2023/07/08 07:26:53;;;;;;;5.45;5.03;;;25.10;90.20;;;;;;6299247;27;89456;-72
2023/07/08 07:29:59;;;;;;;6.03;5.53;;;25.20;90.20;;;;;;6282430;27;89101;-71
2023/07/08 07:33:02;;;;;;;5.65;5.15;;;25.20;90.20;;;;;;6287943;27;89043;-71
2023/07/08 07:36:04;;;;;;;5.63;5.03;;;25.20;90.20;;;;;;6283887;27;89146;-71
2023/07/08 07:39:06;;;;;;;5.55;5.05;;;25.20;90.20;;;;;;6287413;27;88459;-71
2023/07/08 07:42:09;;;;;;;6.00;5.50;;;25.20;90.20;;;;;;6282807;27;89381;-71
2023/07/08 07:45:13;;;;;;;5.72;5.22;;;25.20;90.20;;;;;;6280537;27;89712;-71
2023/07/08 07:48:15;;;;;;;5.65;5.15;;;25.20;90.20;;;;;;6286485;27;90002;-71
2023/07/08 07:51:17;;;;;;;5.22;4.72;;;25.20;90.30;;;;;;6292955;27;89371;-71
2023/07/08 07:54:19;;;;;;;5.60;5.10;;;25.20;90.30;;;;;;6281848;27;87961;-71
2023/07/08 07:57:21;;;;;;;5.75;5.25;;;25.20;90.30;;;;;;6289878;27;89094;-71
2023/07/08 08:00:24;;;;;;;5.50;5.00;;;25.20;90.30;;;;;;6289306;27;89016;-71
2023/07/08 08:03:26;;;;;;;5.53;5.03;;;25.20;90.30;;;;;;6284857;27;89070;-71
2023/07/08 08:06:28;;;;;;;5.43;4.97;;;25.20;90.30;;;;;;6293519;27;89366;-71
2023/07/08 08:09:30;;;;;;;5.43;4.93;;;25.20;90.30;;;;;;6287855;27;88586;-71
2023/07/08 08:12:32;;;;;;;6.30;5.70;;;25.20;90.30;;;;;;6290463;27;88271;-71
2023/07/08 08:15:41;;;;;;;5.50;5.00;;;25.20;90.30;;;;;;6296033;27;89015;-71
2023/07/08 08:18:43;;;;;;;5.50;5.00;;;25.20;90.30;;;;;;6287660;27;90203;-71
2023/07/08 08:21:45;;;;;;;5.20;4.70;;;25.20;90.30;;;;;;6298492;27;87979;-71
2023/07/08 08:24:47;;;;;;;5.15;4.72;;;25.20;90.30;;;;;;6284571;27;89083;-71
2023/07/08 08:27:49;;;;;;;5.75;5.25;;;25.20;90.30;;;;;;6281244;27;89317;-71
2023/07/08 08:30:53;;;;;;;5.22;4.78;;;25.20;90.30;;;;;;6300943;27;87786;-70
2023/07/08 08:33:55;;;;;;;5.60;5.10;;;25.20;90.30;;;;;;6284755;27;88305;-71
2023/07/08 08:36:57;;;;;;;5.78;5.28;;;25.20;90.30;;;;;;6290712;27;89302;-70
2023/07/08 08:39:59;;;;;;;5.40;4.93;;;25.20;90.30;;;;;;6288285;27;88401;-71
2023/07/08 08:43:05;;;;;;;6.10;5.53;;;25.20;90.30;;;;;;6295821;27;89153;-71
2023/07/08 08:46:13;;;;;;;5.57;5.05;;;25.20;90.30;;;;;;6288649;27;87930;-71
2023/07/08 08:49:23;;;;;;;5.65;5.15;;;25.20;90.30;;;;;;6304581;27;89999;-71
2023/07/08 08:52:25;;;;;;;5.30;4.80;;;25.20;90.30;;;;;;6290792;27;89342;-71
2023/07/08 08:55:27;;;;;;;5.35;4.85;;;25.20;90.30;;;;;;6284528;27;88420;-71
2023/07/08 08:58:38;;;;;;;5.50;5.00;;;25.20;90.40;;;;;;6294183;27;89054;-71
2023/07/08 09:01:41;;;;;;;5.20;4.80;;;25.20;90.30;;;;;;6308533;27;89099;-71
2023/07/08 09:04:43;;;;;;;5.90;5.35;;;25.20;90.40;;;;;;6286641;27;89402;-71
2023/07/08 09:07:52;;;;;;;5.32;4.93;;;25.20;90.40;;;;;;6289785;27;88107;-71
2023/07/08 09:10:59;;;;;;;5.20;4.80;;;25.20;90.40;;;;;;6309071;27;88313;-71
2023/07/08 09:14:01;;;;;;;5.47;5.00;;;25.20;90.40;;;;;;6297198;27;89069;-71
2023/07/08 09:17:17;;;;;;;5.40;4.90;;;25.20;90.40;;;;;;6297036;27;89118;-70
2023/07/08 09:20:23;;;;;;;5.25;4.75;;;25.20;90.40;;;;;;6286891;27;90054;-72
2023/07/08 09:23:31;;;;;;;5.05;4.65;;;25.20;90.40;;;;;;6294261;27;89064;-70
2023/07/08 09:26:41;;;;;;;5.03;4.63;;;25.20;90.40;;;;;;6289716;27;87981;-70
2023/07/08 09:29:43;;;;;;;5.50;5.05;;;25.20;90.40;;;;;;6295038;27;89072;-71
2023/07/08 09:32:47;;;;;;;5.90;5.40;;;25.20;90.50;;;;;;6289148;27;89003;-71
2023/07/08 09:35:50;;;;;;;5.50;5.00;;;25.20;90.60;;;;;;6291866;27;89071;-71
2023/07/08 09:38:52;;;;;;;4.90;4.50;;;25.20;90.50;;;;;;6282936;27;89057;-71
2023/07/08 09:41:54;;;;;;;5.72;5.22;;;25.20;90.50;;;;;;6283758;27;87766;-71
2023/07/08 09:44:58;;;;;;;5.50;5.00;;;25.20;90.50;;;;;;6296009;27;89386;-71
2023/07/08 09:48:03;;;;;;;5.40;4.90;;;25.20;90.50;;;;;;6295527;27;88980;-70
2023/07/08 09:51:08;;;;;;;5.18;4.68;;;25.20;90.50;;;;;;6288166;27;89976;-71
2023/07/08 09:54:10;;;;;;;5.30;4.80;;;25.20;90.50;;;;;;6299293;27;88014;-71
2023/07/08 09:57:18;;;;;;;5.22;4.80;;;25.20;90.50;;;;;;6302686;27;89485;-69
2023/07/08 10:00:27;;;;;;;5.38;4.80;;;25.20;90.60;;;;;;6290382;27;89015;-71
2023/07/08 10:03:34;;;;;;;6.55;4.85;;;25.20;90.70;;;;;;6295514;27;89062;-71
2023/07/08 10:06:37;;;;;;;5.88;5.28;;;25.20;90.90;;;;;;6295729;27;87931;-71
2023/07/08 10:10:22;;;;;;;5.35;4.60;;;25.20;90.90;;;;;;6297143;27;89086;-71
2023/07/08 10:13:34;;;;;;;9.23;4.90;;;25.20;90.80;;;;;;6286826;27;88332;-71
2023/07/08 10:16:36;;;;;;;6.57;4.70;;;25.20;90.80;;;;;;6283339;27;88172;-70
2023/07/08 10:19:40;;;;;;;8.40;5.10;;;25.20;90.90;;;;;;6288511;27;89069;-71
2023/07/08 10:22:55;;;;;;;7.78;5.10;;;25.20;90.90;;;;;;6284171;27;90014;-70
2023/07/08 10:26:06;;;;;;;5.40;4.82;;;25.20;91.10;;;;;;6291700;27;88299;-72
2023/07/08 10:29:22;;;;;;;8.48;5.10;;;25.20;91.70;;;;;;6294360;27;87990;-71
2023/07/08 10:32:36;;;;;;;7.30;5.03;;;25.20;91.30;;;;;;6294747;27;89506;-71
2023/07/08 10:35:46;;;;;;;8.02;5.00;;;25.30;91.30;;;;;;6294925;27;89660;-71
2023/07/08 10:39:02;;;;;;;6.30;5.05;;;25.20;91.30;;;;;;6292167;27;89116;-72
2023/07/08 10:42:16;;;;;;;6.32;4.88;;;25.20;91.30;;;;;;6300169;27;87983;-69
2023/07/08 10:45:24;;;;;;;8.38;4.97;;;25.20;91.30;;;;;;6294663;27;87479;-71
2023/07/08 10:48:47;;;;;;;6.80;5.13;;;25.30;91.20;;;;;;6304191;27;89454;-71
2023/07/08 10:52:02;;;;;;;7.68;5.28;;;25.30;91.20;;;;;;6290033;27;89384;-71
2023/07/08 10:55:19;;;;;;;6.78;4.93;;;25.30;91.20;;;;;;6283666;27;89959;-71
2023/07/08 10:58:44;;;;;;;6.88;4.97;;;25.30;91.20;;;;;;6289652;27;89047;-72
2023/07/08 11:01:56;;;;;;;5.68;4.95;;;25.30;91.20;;;;;;6292596;27;89091;-72
2023/07/08 11:05:13;;;;;;;7.57;5.00;;;25.30;91.20;;;;;;6291655;27;89187;-70
2023/07/08 11:08:23;;;;;;;6.75;4.97;;;25.30;91.10;;;;;;6294754;27;89155;-71
2023/07/08 11:11:33;;;;;;;6.93;5.00;;;25.30;91.10;;;;;;6292593;27;89295;-72
2023/07/08 11:14:47;;;;;;;5.95;4.55;;;25.30;91.20;;;;;;6292550;27;88993;-71
2023/07/08 11:17:52;;;;;;;6.13;4.85;;;25.30;91.30;;;;;;6293991;27;88701;-71
2023/07/08 11:21:01;;;;;;;7.00;4.90;;;25.30;91.30;;;;;;6282952;27;89371;-72
2023/07/08 11:24:12;;;;;;;7.55;4.90;;;25.30;91.40;;;;;;6291058;27;89336;-72
2023/07/08 11:27:24;;;;;;;5.57;5.03;;;25.20;91.30;;;;;;6291055;27;90343;-72
2023/07/08 11:30:29;;;;;;;6.57;5.55;;;25.30;91.70;;;;;;6281071;27;87911;-69
2023/07/08 11:33:32;;;;;;;10.48;6.32;;;25.30;91.60;;;;;;6293875;27;89082;-70
2023/07/08 11:36:35;;;;;;;7.55;6.38;;;25.40;92.70;;;;;;6288263;27;88086;-70
2023/07/08 11:39:43;;;;;;;8.40;5.70;;;25.50;91.80;;;;;;6282433;27;89330;-69
2023/07/08 11:42:49;;;;;;;8.25;5.90;;;25.60;91.10;;;;;;6291970;27;89082;-69
2023/07/08 11:45:56;;;;;;;8.63;6.45;;;25.60;91.20;;;;;;6282803;27;88567;-69
2023/07/08 11:49:03;;;;;;;9.75;6.28;;;25.70;91.30;;;;;;6281603;27;88437;-71
2023/07/08 11:52:06;;;;;;;7.80;5.85;;;25.60;91.30;;;;;;6288501;27;89031;-71
2023/07/08 11:55:21;;;;;;;7.57;5.60;;;25.60;91.30;;;;;;6283632;27;89011;-69
2023/07/08 11:58:26;;;;;;;6.40;5.75;;;25.60;91.30;;;;;;6288645;27;89923;-68
2023/07/08 12:01:33;;;;;;;6.00;5.50;;;25.60;91.20;;;;;;6281308;27;88247;-69
2023/07/08 12:04:36;;;;;;;6.70;5.47;;;25.60;91.20;;;;;;6293412;27;88331;-70
2023/07/08 12:07:42;;;;;;;6.68;5.50;;;25.60;91.20;;;;;;6292969;27;89017;-69
2023/07/08 12:10:51;;;;;;;6.85;5.25;;;25.70;91.20;;;;;;6290776;27;89319;-71
2023/07/08 12:14:02;;;;;;;7.72;5.55;;;25.60;91.20;;;;;;6288130;27;87934;-70
2023/07/08 12:17:11;;;;;;;6.95;5.18;;;25.70;91.40;;;;;;6291456;27;89241;-67
2023/07/08 12:20:21;;;;;;;6.47;5.03;;;25.70;91.10;;;;;;6291817;27;88366;-70
2023/07/08 12:23:25;;;;;;;8.00;5.30;;;25.70;91.00;;;;;;6299271;27;89655;-68
2023/07/08 12:26:28;;;;;;;6.05;5.07;;;25.80;91.00;;;;;;6290098;27;89132;-69
2023/07/08 12:29:32;;;;;;;5.95;5.28;;;25.70;91.00;;;;;;6301651;27;90072;-70
2023/07/08 12:32:35;;;;;;;7.07;5.50;;;25.70;90.90;;;;;;6292460;27;89176;-70
2023/07/08 12:35:37;;;;;;;7.25;5.45;;;25.80;90.90;;;;;;6292016;27;87857;-71
2023/07/08 12:38:41;;;;;;;5.65;5.15;;;25.70;90.90;;;;;;6293761;27;89057;-71
2023/07/08 12:41:46;;;;;;;5.30;4.80;;;25.80;90.80;;;;;;6290471;27;89290;-70
2023/07/08 12:44:48;;;;;;;7.22;5.45;;;25.70;90.80;;;;;;6291898;27;88639;-72
2023/07/08 12:47:50;;;;;;;5.70;5.20;;;25.80;91.20;;;;;;6287736;27;89096;-69
2023/07/08 12:50:52;;;;;;;7.10;5.05;;;25.70;90.80;;;;;;6291465;27;88524;-70
2023/07/08 12:53:55;;;;;;;6.05;5.13;;;25.80;90.80;;;;;;6304716;27;89040;-69
2023/07/08 12:57:00;;;;;;;7.43;5.00;;;25.80;91.00;;;;;;6293764;27;89106;-69
2023/07/08 13:00:03;;;;;;;5.85;4.88;;;25.80;91.00;;;;;;6296863;27;90097;-68
2023/07/08 13:03:09;;;;;;;8.32;5.30;;;25.70;91.10;;;;;;6295208;27;88839;-69
2023/07/08 13:06:13;;;;;;;6.97;5.55;;;25.70;91.10;;;;;;6302967;27;89118;-68
2023/07/08 13:09:32;;;;;;;6.05;5.20;;;25.70;91.10;;;;;;6294099;27;89463;-69
2023/07/08 13:12:39;;;;;;;6.43;5.20;;;25.70;91.10;;;;;;6291592;27;89082;-69
2023/07/08 13:15:43;;;;;;;6.93;5.00;;;25.80;91.10;;;;;;6299794;27;89336;-69
2023/07/08 13:18:45;;;;;;;4.97;4.47;;;25.80;91.10;;;;;;6297920;27;89082;-69
2023/07/08 13:21:48;;;;;;;5.85;4.95;;;25.70;91.00;;;;;;6300699;27;88384;-70
2023/07/08 13:25:00;;;;;;;6.28;4.72;;;25.70;91.00;;;;;;6295520;27;89613;-70
2023/07/08 13:28:17;;;;;;;5.18;4.43;;;25.70;91.00;;;;;;6295228;27;89250;-70
2023/07/08 13:31:21;;;;;;;6.20;5.20;;;25.80;91.00;;;;;;6291049;27;90063;-70
2023/07/08 13:34:25;;;;;;;6.03;5.03;;;25.70;90.90;;;;;;6291838;27;89002;-70
2023/07/08 13:37:30;;;;;;;6.05;4.95;;;25.70;90.90;;;;;;6300538;27;89138;-70
2023/07/08 13:40:33;;;;;;;5.50;4.88;;;25.70;91.00;;;;;;6294683;27;89145;-70
2023/07/08 13:43:39;;;;;;;6.18;5.03;;;25.70;91.00;;;;;;6292843;27;90134;-70
2023/07/08 13:46:46;;;;;;;6.18;4.90;;;25.70;91.00;;;;;;6284199;27;89268;-70
2023/07/08 13:49:52;;;;;;;6.80;4.72;;;25.70;91.00;;;;;;6285424;27;89057;-70
2023/07/08 13:52:55;;;;;;;6.55;4.70;;;25.60;91.00;;;;;;6291532;27;88350;-69
2023/07/08 13:56:00;;;;;;;5.22;4.70;;;25.70;91.10;;;;;;6300718;27;89060;-69
2023/07/08 13:59:05;;;;;;;5.55;4.93;;;25.70;91.10;;;;;;6281624;27;87898;-70
2023/07/08 14:02:16;;;;;;;6.25;4.85;;;25.70;91.20;;;;;;6288680;27;88996;-69
2023/07/08 14:05:21;;;;;;;5.32;4.47;;;25.70;91.50;;;;;;6291971;27;88422;-69
2023/07/08 14:08:23;;;;;;;6.22;4.78;;;25.70;91.60;;;;;;6283073;27;89054;-68
2023/07/08 14:11:25;;;;;;;5.40;4.90;;;25.70;91.70;;;;;;6296432;27;87957;-69
2023/07/08 14:14:28;;;;;;;5.18;4.68;;;25.70;91.80;;;;;;6291604;27;89143;-68
2023/07/08 14:17:30;;;;;;;7.45;5.18;;;25.70;91.80;;;;;;6290312;27;89054;-69
2023/07/08 14:20:32;;;;;;;5.03;4.53;;;25.60;91.70;;;;;;6294173;27;89131;-69
2023/07/08 14:23:34;;;;;;;5.43;4.93;;;25.60;91.70;;;;;;6296769;27;88406;-68
2023/07/08 14:26:36;;;;;;;6.35;4.70;;;25.60;91.60;;;;;;6294919;27;88453;-69
2023/07/08 14:29:40;;;;;;;5.70;4.97;;;25.60;91.60;;;;;;6306411;27;88944;-68
2023/07/08 14:32:42;;;;;;;6.60;5.35;;;25.60;91.60;;;;;;6285281;27;90145;-69
2023/07/08 14:35:44;;;;;;;6.97;5.07;;;25.60;91.60;;;;;;6282761;27;89052;-69
2023/07/08 14:38:46;;;;;;;5.35;4.82;;;25.60;91.60;;;;;;6284296;27;87923;-68
2023/07/08 14:41:49;;;;;;;5.97;4.90;;;25.60;91.50;;;;;;6293626;27;89040;-69
2023/07/08 14:44:53;;;;;;;5.93;4.72;;;25.60;91.50;;;;;;6282902;27;88420;-69
2023/07/08 14:47:56;;;;;;;6.95;4.57;;;25.60;91.50;;;;;;6282081;27;89483;-68
2023/07/08 14:50:58;;;;;;;7.05;4.70;;;25.60;91.50;;;;;;6295390;27;89185;-68
2023/07/08 14:54:00;;;;;;;5.57;4.72;;;25.60;91.40;;;;;;6303856;27;88715;-70
2023/07/08 14:57:04;;;;;;;5.40;4.90;;;25.60;91.30;;;;;;6286898;27;89183;-70
2023/07/08 15:00:12;;;;;;;6.80;4.88;;;25.60;91.30;;;;;;6295195;27;89333;-71
2023/07/08 15:03:14;;;;;;;5.35;4.80;;;25.60;91.30;;;;;;6280782;27;90362;-71
2023/07/08 15:06:16;;;;;;;5.53;4.80;;;25.60;91.70;;;;;;6289518;27;89094;-71
2023/07/08 15:09:19;;;;;;;6.03;5.00;;;25.60;91.30;;;;;;6300501;27;89071;-71
2023/07/08 15:12:20;;;;;;;6.05;4.88;;;25.60;91.30;;;;;;6286265;27;87950;-69
2023/07/08 15:15:29;;;;;;;5.28;4.78;;;25.60;91.30;;;;;;6289622;27;89123;-69
2023/07/08 15:18:33;;;;;;;5.40;4.90;;;25.60;91.20;;;;;;6290253;27;89101;-69
2023/07/08 15:21:35;;;;;;;5.25;4.72;;;25.60;91.20;;;;;;6297695;27;89084;-69
2023/07/08 15:24:37;;;;;;;6.43;4.82;;;25.60;91.20;;;;;;6295332;27;88306;-68
2023/07/08 15:27:39;;;;;;;5.38;4.88;;;25.50;91.20;;;;;;6283448;27;89079;-69
2023/07/08 15:30:43;;;;;;;5.53;4.82;;;25.60;91.20;;;;;;6285452;27;89047;-68
2023/07/08 15:33:45;;;;;;;5.43;4.88;;;25.60;91.20;;;;;;6281423;27;90007;-68
2023/07/08 15:36:48;;;;;;;6.22;4.75;;;25.60;91.20;;;;;;6298916;27;89171;-68
2023/07/08 15:39:50;;;;;;;5.13;4.50;;;25.60;91.20;;;;;;6294431;27;89096;-71
2023/07/08 15:42:54;;;;;;;5.10;4.60;;;25.60;91.10;;;;;;6294125;27;88551;-69
2023/07/08 15:46:01;;;;;;;4.80;4.40;;;25.60;91.10;;;;;;6297007;27;89154;-69
2023/07/08 15:49:14;;;;;;;4.97;4.25;;;25.60;91.10;;;;;;6301184;27;89066;-69
2023/07/08 15:52:15;;;;;;;4.70;4.25;;;25.60;91.00;;;;;;6296329;27;89028;-69
2023/07/08 15:55:21;;;;;;;5.20;4.70;;;25.60;91.00;;;;;;6286427;27;88249;-69
2023/07/08 15:58:27;;;;;;;4.70;4.30;;;25.60;91.00;;;;;;6279947;27;88267;-69
2023/07/08 16:01:31;;;;;;;4.80;4.30;;;25.60;91.00;;;;;;6280205;27;89226;-68